Time;durP1;ratioP1;P1;durP2;ratioP2;P2;SDS_P1;SDS_P2;PMS_P1;PMS_P2;Temp;Humidity;BMP_temperature;BMP_pressure;BME280_temperature;BME280_humidity;BME280_pressure;Samples;Min_cycle;Max_cycle;Signal;HPM_P1;HPM_P2
2021/11/02 00:00:15;;;;;;;;;;;;;;;9.12;57.59;100255.81;3512010;28;19920;-71
2021/11/02 00:01:56;;;;;;;;;;;;;;;9.11;57.58;100257.66;3504491;28;19943;-70
2021/11/02 00:03:36;;;;;;;;;;;;;;;9.11;57.58;100260.31;3512009;28;20456;-71
2021/11/02 00:05:17;;;;;;;;;;;;;;;9.11;57.66;100252.34;3513075;28;19946;-71
2021/11/02 00:06:58;;;;;;;;;;;;;;;9.11;57.87;100259.47;3503390;28;19920;-70
2021/11/02 00:08:39;;;;;;;;;;;;;;;9.12;57.69;100250.50;3498818;28;19924;-72
2021/11/02 00:10:21;;;;;;;;;;;;;;;9.12;57.98;100259.31;3498202;28;19924;-71
2021/11/02 00:12:03;;;;;;;;;;;;;;;9.14;57.77;100253.81;3497751;28;20284;-72
2021/11/02 00:13:46;;;;;;;;;;;;;;;9.14;57.93;100259.16;3497829;28;20073;-70
2021/11/02 00:15:29;;;;;;;;;;;;;;;9.14;57.92;100259.97;3497785;28;19920;-71
2021/11/02 00:17:16;;;;;;;;;;;;;;;9.16;57.80;100257.13;3497733;28;19920;-71
2021/11/02 00:19:00;;;;;;;;;;;;;;;9.15;57.73;100256.31;3498030;28;19920;-71
2021/11/02 00:20:41;;;;;;;;;;;;;;;9.15;57.72;100264.28;3498130;28;19951;-71
2021/11/02 00:22:23;;;;;;;;;;;;;;;9.15;57.87;100261.63;3511351;28;19927;-71
2021/11/02 00:24:16;;;;;;;;;;;;;;;9.16;57.71;100255.31;3511425;28;20014;-71
2021/11/02 00:25:57;;;;;;;;;;;;;;;9.14;58.06;100254.66;3510690;28;19935;-73
2021/11/02 00:27:39;;;;;;;;;;;;;;;9.15;58.14;100256.31;3510506;28;19920;-69
2021/11/02 00:29:20;;;;;;;;;;;;;;;9.15;58.13;100260.78;3511596;28;19915;-72
2021/11/02 00:31:00;;;;;;;;;;;;;;;9.16;58.11;100255.31;3510534;28;19973;-71
2021/11/02 00:32:42;;;;;;;;;;;;;;;9.18;58.12;100255.13;3509749;28;19927;-71
2021/11/02 00:34:22;;;;;;;;;;;;;;;9.17;58.02;100249.00;3510855;28;19919;-71
2021/11/02 00:36:07;;;;;;;;;;;;;;;9.19;58.04;100256.81;3507568;28;19920;-69
2021/11/02 00:37:47;;;;;;;;;;;;;;;9.21;57.98;100256.63;3496341;28;19920;-71
2021/11/02 00:39:28;;;;;;;;;;;;;;;9.21;58.25;100251.28;3497386;28;19920;-70
2021/11/02 00:41:08;;;;;;;;;;;;;;;9.21;58.18;100244.13;3503842;28;19924;-71
2021/11/02 00:44:30;;;;;;;;;;;;;;;9.21;58.06;100243.31;3510326;28;19946;-70
2021/11/02 00:46:11;;;;;;;;;;;;;;;9.21;58.06;100241.47;3509459;28;19924;-71
2021/11/02 00:47:52;;;;;;;;;;;;;;;9.23;58.22;100241.31;3511090;28;20022;-72
2021/11/02 00:49:33;;;;;;;;;;;;;;;9.22;58.03;100245.81;3503899;28;19920;-71
2021/11/02 00:51:14;;;;;;;;;;;;;;;9.23;58.09;100239.47;3497527;28;19916;-71
2021/11/02 00:52:55;;;;;;;;;;;;;;;9.25;58.08;100239.31;3497483;28;20391;-73
2021/11/02 00:54:35;;;;;;;;;;;;;;;9.27;58.03;100240.00;3495968;28;19916;-70
2021/11/02 00:56:16;;;;;;;;;;;;;;;9.29;58.12;100245.94;3496490;28;19986;-71
2021/11/02 00:57:59;;;;;;;;;;;;;;;9.27;58.11;100238.16;3496970;28;19916;-71
2021/11/02 00:59:41;;;;;;;;;;;;;;;9.27;58.17;100238.16;3497400;28;19966;-73
2021/11/02 01:01:22;;;;;;;;;;;;;;;9.26;57.95;100239.13;3503600;28;19916;-72
2021/11/02 01:03:04;;;;;;;;;;;;;;;9.25;58.02;100239.31;3510893;28;20116;-70
2021/11/02 01:04:46;;;;;;;;;;;;;;;9.24;58.05;100240.31;3510646;28;19981;-71
2021/11/02 01:06:26;;;;;;;;;;;;;;;9.22;58.24;100239.69;3506771;28;19920;-71
2021/11/02 01:08:07;;;;;;;;;;;;;;;9.22;58.14;100245.81;3510675;28;20036;-71
2021/11/02 01:09:48;;;;;;;;;;;;;;;9.21;58.25;100249.47;3510155;28;20457;-72
2021/11/02 01:11:29;;;;;;;;;;;;;;;9.21;58.25;100240.66;3492149;28;19973;-70
2021/11/02 01:13:09;;;;;;;;;;;;;;;9.19;58.35;100238.19;3493159;28;19928;-71
2021/11/02 01:14:50;;;;;;;;;;;;;;;9.20;58.23;100241.66;3493384;28;19922;-71
2021/11/02 01:16:30;;;;;;;;;;;;;;;9.21;58.38;100238.00;3500691;28;19927;-71
2021/11/02 01:18:11;;;;;;;;;;;;;;;9.23;58.27;100246.63;3497106;28;20073;-71
2021/11/02 01:19:52;;;;;;;;;;;;;;;9.23;58.16;100246.63;3497289;28;19920;-72
2021/11/02 01:21:33;;;;;;;;;;;;;;;9.21;58.15;100238.81;3497690;28;20414;-71
2021/11/02 01:23:14;;;;;;;;;;;;;;;9.22;58.18;100239.69;3496515;28;20622;-71
2021/11/02 01:24:55;;;;;;;;;;;;;;;9.22;58.28;100245.00;3496404;28;19921;-71
2021/11/02 01:26:38;;;;;;;;;;;;;;;9.20;58.39;100250.47;3502697;28;19919;-74
2021/11/02 01:28:19;;;;;;;;;;;;;;;9.19;58.46;100240.84;3509874;28;19920;-73
2021/11/02 01:30:00;;;;;;;;;;;;;;;9.19;58.48;100251.50;3507153;28;20370;-72
2021/11/02 01:31:44;;;;;;;;;;;;;;;9.19;58.42;100248.81;3503142;28;20378;-71
2021/11/02 01:33:24;;;;;;;;;;;;;;;9.21;58.20;100248.63;3495569;28;19978;-71
2021/11/02 01:35:08;;;;;;;;;;;;;;;9.21;58.23;100245.97;3493329;28;19960;-70
2021/11/02 01:36:51;;;;;;;;;;;;;;;9.21;58.38;100243.31;3503050;28;20021;-71
2021/11/02 01:38:33;;;;;;;;;;;;;;;9.20;58.46;100253.13;3506828;28;19920;-71
2021/11/02 01:40:21;;;;;;;;;;;;;;;9.20;58.35;100254.97;3509669;28;19927;-72
2021/11/02 01:42:02;;;;;;;;;;;;;;;9.20;58.39;100252.31;3508588;28;20015;-70
2021/11/02 01:43:43;;;;;;;;;;;;;;;9.19;58.39;100251.50;3510340;28;19919;-72
2021/11/02 01:45:28;;;;;;;;;;;;;;;9.18;58.59;100253.28;3509475;28;19927;-70
2021/11/02 01:47:13;;;;;;;;;;;;;;;9.18;58.54;100253.28;3493750;28;19956;-71
2021/11/02 01:48:55;;;;;;;;;;;;;;;9.17;58.57;100256.13;3493112;28;20002;-70
2021/11/02 01:50:37;;;;;;;;;;;;;;;9.16;58.45;100257.13;3493176;28;20410;-70
2021/11/02 01:52:17;;;;;;;;;;;;;;;9.17;58.62;100256.97;3496852;28;20007;-72
2021/11/02 01:53:59;;;;;;;;;;;;;;;9.20;58.58;100247.00;3506702;28;19991;-71
2021/11/02 01:55:42;;;;;;;;;;;;;;;9.20;58.61;100244.34;3506076;28;19927;-71
2021/11/02 01:57:23;;;;;;;;;;;;;;;9.21;58.63;100249.47;3492792;28;20018;-71
2021/11/02 01:59:04;;;;;;;;;;;;;;;9.22;58.45;100247.66;3492547;28;19920;-71
2021/11/02 02:00:54;;;;;;;;;;;;;;;9.24;58.54;100248.28;3493985;28;19928;-70
2021/11/02 02:02:54;;;;;;;;;;;;;;;9.24;58.43;100249.13;3489476;28;19924;-71
2021/11/02 02:04:46;;;;;;;;;;;;;;;9.25;58.22;100244.66;3494993;28;20417;-72
2021/11/02 02:06:45;;;;;;;;;;;;;;;9.23;58.27;100246.63;3500957;28;19973;-71
2021/11/02 02:08:34;;;;;;;;;;;;;;;9.21;58.26;100244.13;3509065;28;19920;-71
2021/11/02 02:10:19;;;;;;;;;;;;;;;9.23;58.20;100241.31;3502741;28;20466;-72
2021/11/02 02:12:09;;;;;;;;;;;;;;;9.22;58.50;100245.00;3499861;28;20305;-70
2021/11/02 02:13:53;;;;;;;;;;;;;;;9.22;58.12;100250.31;3495536;28;20320;-71
2021/11/02 02:15:41;;;;;;;;;;;;;;;9.21;58.23;100253.94;3493349;28;19928;-70
2021/11/02 02:17:25;;;;;;;;;;;;;;;9.21;58.27;100243.31;3493439;28;19920;-71
2021/11/02 02:19:24;;;;;;;;;;;;;;;9.21;58.16;100253.94;3492946;28;19942;-71
2021/11/02 02:21:45;;;;;;;;;;;;;;;9.17;58.11;100246.31;3495157;28;20013;-71
2021/11/02 02:23:34;;;;;;;;;;;;;;;9.14;58.32;100252.00;3453474;28;19928;-71
2021/11/02 02:25:35;;;;;;;;;;;;;;;9.12;58.27;100256.66;3465971;28;19928;-71
2021/11/02 02:27:31;;;;;;;;;;;;;;;9.12;58.52;100248.66;3480877;28;20406;-70
2021/11/02 02:29:12;;;;;;;;;;;;;;;9.13;58.35;100252.97;3489012;28;19925;-71
2021/11/02 02:31:11;;;;;;;;;;;;;;;9.14;58.35;100248.50;3478916;28;20023;-72
2021/11/02 02:32:56;;;;;;;;;;;;;;;9.15;58.30;100250.16;3495330;28;19928;-72
2021/11/02 02:34:37;;;;;;;;;;;;;;;9.17;58.39;100253.47;3492684;28;20426;-70
2021/11/02 02:36:17;;;;;;;;;;;;;;;9.16;58.29;100257.97;3500168;28;19951;-71
2021/11/02 02:38:12;;;;;;;;;;;;;;;9.19;58.27;100256.81;3510337;28;19977;-72
2021/11/02 02:39:53;;;;;;;;;;;;;;;9.20;58.20;100250.47;3509346;28;19920;-71
2021/11/02 02:41:36;;;;;;;;;;;;;;;9.21;58.45;100249.47;3508234;28;19947;-71
2021/11/02 02:43:18;;;;;;;;;;;;;;;9.22;58.37;100250.31;3495335;28;20861;-70
2021/11/02 02:44:59;;;;;;;;;;;;;;;9.21;58.08;100249.47;3503540;28;19959;-70
2021/11/02 02:46:40;;;;;;;;;;;;;;;9.20;58.18;100258.44;3503067;28;19927;-68
2021/11/02 02:48:21;;;;;;;;;;;;;;;9.20;58.15;100253.13;3495416;28;19920;-70
2021/11/02 02:50:02;;;;;;;;;;;;;;;9.21;58.17;100248.63;3498595;28;19998;-70
2021/11/02 02:51:45;;;;;;;;;;;;;;;9.20;58.16;100247.81;3509138;28;19947;-71
2021/11/02 02:53:27;;;;;;;;;;;;;;;9.20;58.20;100252.31;3492863;28;19925;-69
2021/11/02 02:55:08;;;;;;;;;;;;;;;9.17;58.25;100246.31;3492594;28;19916;-70
2021/11/02 02:56:50;;;;;;;;;;;;;;;9.15;58.23;100250.16;3497337;28;19920;-69
2021/11/02 02:58:33;;;;;;;;;;;;;;;9.13;58.25;100247.66;3495189;28;19920;-70
2021/11/02 03:00:15;;;;;;;;;;;;;;;9.12;58.20;100250.50;3495515;28;19924;-70
2021/11/02 03:01:56;;;;;;;;;;;;;;;9.11;58.42;100251.50;3495019;28;20387;-71
2021/11/02 03:03:44;;;;;;;;;;;;;;;9.11;58.41;100248.81;3496232;28;19920;-71
2021/11/02 03:05:26;;;;;;;;;;;;;;;9.10;58.38;100253.31;3495522;28;19966;-70
2021/11/02 03:07:13;;;;;;;;;;;;;;;9.09;58.48;100251.69;3498636;28;20391;-70
2021/11/02 03:08:54;;;;;;;;;;;;;;;9.10;58.36;100244.53;3497531;28;19967;-70
2021/11/02 03:10:35;;;;;;;;;;;;;;;9.11;58.31;100249.69;3483735;28;19920;-70
2021/11/02 03:12:19;;;;;;;;;;;;;;;9.12;58.34;100246.00;3495073;28;19920;-70
2021/11/02 03:14:01;;;;;;;;;;;;;;;9.14;58.44;100246.69;3495356;28;20012;-70
2021/11/02 03:15:52;;;;;;;;;;;;;;;9.16;58.32;100251.81;3495065;28;19964;-71
2021/11/02 03:17:35;;;;;;;;;;;;;;;9.14;58.22;100246.69;3497440;28;19925;-71
2021/11/02 03:20:40;;;;;;;;;;;;;;;9.13;58.14;100247.66;3494090;28;19920;-71
2021/11/02 03:51:41;;;;;;;;;;;;;;;8.95;58.44;100257.69;3497026;28;20405;-70
2021/11/02 03:55:19;;;;;;;;;;;;;;;8.95;58.51;100265.66;3496950;28;19920;-70
2021/11/02 03:57:15;;;;;;;;;;;;;;;8.94;58.48;100258.69;3494729;28;19927;-72
2021/11/02 04:29:02;;;;;;;;;;;;;;;8.86;58.86;100262.19;3493873;28;19920;-69
2021/11/02 05:07:50;;;;;;;;;;;;;;;8.90;58.71;100262.69;3496058;28;19951;-70
2021/11/02 05:57:22;;;;;;;;;;;;;;;8.85;58.90;100280.97;3509871;28;20331;-71
2021/11/02 06:28:28;;;;;;;;;;;;;;;8.92;58.75;100293.41;3496477;28;19920;-72
2021/11/02 06:30:09;;;;;;;;;;;;;;;8.95;58.78;100286.94;3495175;28;19974;-70
2021/11/02 06:32:06;;;;;;;;;;;;;;;8.97;58.64;100294.75;3498869;28;19934;-72
2021/11/02 06:35:32;;;;;;;;;;;;;;;9.00;58.50;100294.41;3513118;28;20326;-72
2021/11/02 06:39:30;;;;;;;;;;;;;;;9.03;58.18;100289.56;3509796;28;20373;-70
2021/11/02 06:43:30;;;;;;;;;;;;;;;9.12;58.33;100298.38;3500678;28;19932;-72
2021/11/02 06:48:52;;;;;;;;;;;;;;;9.17;58.26;100302.19;3498953;28;19965;-72
2021/11/02 06:54:51;;;;;;;;;;;;;;;9.19;58.22;100294.03;3511566;28;20306;-72
2021/11/02 06:59:39;;;;;;;;;;;;;;;9.18;58.04;100303.81;3511312;28;19924;-71
2021/11/02 07:19:04;;;;;;;;;;;;;;;9.34;57.72;100307.44;3498382;28;20345;-72
2021/11/02 07:21:07;;;;;;;;;;;;;;;9.32;57.76;100299.66;3503152;28;19973;-73
2021/11/02 07:23:15;;;;;;;;;;;;;;;9.33;57.62;100305.78;3498615;28;20328;-73
2021/11/02 08:46:26;;;;;;;;;;;;;;;10.56;56.10;100313.09;3498776;28;19920;-67
2021/11/02 08:48:08;;;;;;;;;;;;;;;11.05;56.33;100310.84;3496625;28;19954;-75
2021/11/02 08:49:49;;;;;;;;;;;;;;;11.37;56.01;100308.84;3495764;28;19916;-78
2021/11/02 08:51:33;;;;;;;;;;;;;;;11.51;55.55;100308.00;3496310;28;20015;-72
2021/11/02 08:53:15;;;;;;;;;;;;;;;11.56;55.16;100315.44;3496181;28;20435;-72
2021/11/02 08:54:56;;;;;;;;;;;;;;;11.56;55.17;100315.44;3504069;28;20560;-71
2021/11/02 08:56:37;;;;;;;;;;;;;;;11.54;54.99;100306.81;3507948;28;20018;-71
2021/11/02 08:58:18;;;;;;;;;;;;;;;11.55;54.97;100306.59;3506257;28;19927;-73
2021/11/02 08:59:58;;;;;;;;;;;;;;;11.53;54.82;100313.16;3506107;28;19934;-72
2021/11/02 09:01:41;;;;;;;;;;;;;;;11.56;54.70;100305.63;3499074;28;19920;-73
2021/11/02 09:03:26;;;;;;;;;;;;;;;11.59;54.67;100307.09;3503259;28;20379;-74
2021/11/02 09:05:09;;;;;;;;;;;;;;;11.67;54.56;100312.31;3497671;28;19932;-72
2021/11/02 09:06:50;;;;;;;;;;;;;;;11.73;54.28;100311.56;3507139;28;19934;-72
2021/11/02 09:08:36;;;;;;;;;;;;;;;11.77;54.18;100312.84;3498223;28;19932;-72
2021/11/02 09:10:19;;;;;;;;;;;;;;;11.81;54.17;100309.81;3499532;28;19920;-72
2021/11/02 09:12:02;;;;;;;;;;;;;;;11.78;54.06;100303.00;3496154;28;19924;-74
2021/11/02 09:14:02;;;;;;;;;;;;;;;11.87;53.93;100311.75;3496757;28;19924;-75
2021/11/02 09:15:44;;;;;;;;;;;;;;;11.95;53.75;100314.31;3504906;28;19943;-73
2021/11/02 09:17:27;;;;;;;;;;;;;;;11.97;53.75;100310.44;3508417;28;20147;-74
2021/11/02 09:19:09;;;;;;;;;;;;;;;12.01;53.73;100313.56;3497259;28;19924;-75
2021/11/02 09:20:51;;;;;;;;;;;;;;;12.10;53.58;100312.41;3499336;28;19920;-73
2021/11/02 09:22:34;;;;;;;;;;;;;;;12.18;53.49;100309.66;3500984;28;20058;-73
2021/11/02 09:24:16;;;;;;;;;;;;;;;12.19;53.19;100319.31;3485158;28;19920;-73
2021/11/02 09:25:58;;;;;;;;;;;;;;;12.18;53.25;100315.00;3493636;28;20062;-72
2021/11/02 09:27:39;;;;;;;;;;;;;;;12.15;53.33;100317.19;3490968;28;19935;-73
2021/11/02 09:29:22;;;;;;;;;;;;;;;12.10;53.37;100311.59;3495547;28;20351;-73
2021/11/02 09:31:03;;;;;;;;;;;;;;;12.03;53.46;100316.88;3489933;28;19923;-74
2021/11/02 09:32:45;;;;;;;;;;;;;;;11.98;53.49;100319.28;3493347;28;19982;-73
2021/11/02 09:34:30;;;;;;;;;;;;;;;11.92;53.60;100317.34;3497992;28;21632;-75
2021/11/02 09:36:13;;;;;;;;;;;;;;;11.85;53.46;100319.06;3507061;28;19920;-76
2021/11/02 09:38:03;;;;;;;;;;;;;;;11.80;53.45;100317.00;3505525;28;19982;-74
2021/11/02 09:39:49;;;;;;;;;;;;;;;11.76;53.61;100319.19;3507236;28;19955;-72
2021/11/02 09:41:42;;;;;;;;;;;;;;;11.71;53.59;100315.44;3491675;28;19920;-71
2021/11/02 09:43:25;;;;;;;;;;;;;;;11.68;53.49;100319.28;3502985;28;19924;-73
2021/11/02 09:45:24;;;;;;;;;;;;;;;11.65;53.50;100316.19;3499134;28;19928;-74
2021/11/02 09:47:08;;;;;;;;;;;;;;;11.61;53.57;100323.72;3501511;28;19927;-72
2021/11/02 09:49:02;;;;;;;;;;;;;;;11.58;53.60;100318.75;3499958;28;19963;-74
2021/11/02 09:51:02;;;;;;;;;;;;;;;11.55;53.52;100324.47;3498750;28;19966;-74
2021/11/02 09:52:58;;;;;;;;;;;;;;;11.50;53.59;100317.00;3498321;28;19920;-73
2021/11/02 09:54:44;;;;;;;;;;;;;;;11.44;53.58;100314.28;3495579;28;19920;-73
2021/11/02 09:56:36;;;;;;;;;;;;;;;11.39;53.60;100312.16;3506606;28;20387;-74
2021/11/02 09:58:31;;;;;;;;;;;;;;;11.33;53.58;100315.53;3494206;28;19923;-75
2021/11/02 10:00:16;;;;;;;;;;;;;;;11.28;53.59;100312.59;3495176;28;19920;-71
2021/11/02 10:02:03;;;;;;;;;;;;;;;11.26;53.77;100310.13;3485872;28;19982;-74
2021/11/02 10:04:05;;;;;;;;;;;;;;;11.21;53.74;100317.84;3495227;28;19923;-73
2021/11/02 10:05:49;;;;;;;;;;;;;;;11.18;53.68;100312.88;3495017;28;19924;-73
2021/11/02 10:07:38;;;;;;;;;;;;;;;11.16;53.66;100309.56;3495548;28;19929;-74
2021/11/02 10:09:19;;;;;;;;;;;;;;;11.15;53.78;100307.88;3495580;28;19920;-74
2021/11/02 10:11:11;;;;;;;;;;;;;;;11.12;53.63;100303.75;3495090;28;20361;-72
2021/11/02 10:12:59;;;;;;;;;;;;;;;11.08;53.79;100304.31;3500852;28;20348;-73
2021/11/02 10:14:44;;;;;;;;;;;;;;;11.03;53.88;100304.03;3508660;28;19997;-74
2021/11/02 10:16:34;;;;;;;;;;;;;;;11.00;53.98;100299.91;3503720;28;19921;-74
2021/11/02 10:18:18;;;;;;;;;;;;;;;10.97;53.97;100299.41;3495413;28;20026;-73
2021/11/02 10:20:04;;;;;;;;;;;;;;;10.95;53.90;100293.47;3496657;28;19924;-73
2021/11/02 10:22:03;;;;;;;;;;;;;;;10.90;53.99;100296.66;3495971;28;19920;-72
2021/11/02 10:23:47;;;;;;;;;;;;;;;10.85;53.98;100285.72;3495454;28;19926;-74
2021/11/02 10:25:48;;;;;;;;;;;;;;;10.82;53.97;100294.91;3499293;28;19916;-75
2021/11/02 10:27:52;;;;;;;;;;;;;;;10.84;53.90;100297.38;3502203;28;19920;-74
2021/11/02 10:29:46;;;;;;;;;;;;;;;10.86;53.81;100288.19;3480175;28;19927;-74
2021/11/02 10:31:45;;;;;;;;;;;;;;;10.85;53.91;100283.88;3487710;28;19920;-75
2021/11/02 10:33:33;;;;;;;;;;;;;;;10.85;53.92;100281.19;3502276;28;20025;-74
2021/11/02 10:35:18;;;;;;;;;;;;;;;10.84;53.88;100286.69;3500685;28;19924;-74
2021/11/02 10:37:02;;;;;;;;;;;;;;;10.80;53.85;100290.75;3500423;28;19975;-75
2021/11/02 10:38:44;;;;;;;;;;;;;;;10.77;53.97;100286.63;3498467;28;20361;-75
2021/11/02 10:40:29;;;;;;;;;;;;;;;10.74;53.92;100286.13;3498718;28;20391;-75
2021/11/02 10:42:14;;;;;;;;;;;;;;;10.70;54.07;100288.34;3494816;28;19920;-74
2021/11/02 10:44:01;;;;;;;;;;;;;;;10.68;54.22;100285.84;3503287;28;19920;-75
2021/11/02 10:45:52;;;;;;;;;;;;;;;10.73;54.52;100279.97;3502012;28;19924;-75
2021/11/02 10:47:39;;;;;;;;;;;;;;;10.78;54.40;100280.25;3502254;28;19926;-75
2021/11/02 10:49:29;;;;;;;;;;;;;;;10.79;54.31;100279.28;3501349;28;19970;-74
2021/11/02 10:51:21;;;;;;;;;;;;;;;10.80;54.13;100280.09;3490076;28;19920;-74
2021/11/02 10:53:02;;;;;;;;;;;;;;;10.87;54.23;100281.03;3484007;28;19931;-77
2021/11/02 10:55:02;;;;;;;;;;;;;;;10.91;54.22;100288.47;3500904;28;19920;-73
2021/11/02 10:56:49;;;;;;;;;;;;;;;10.90;53.87;100278.81;3501233;28;20478;-74
2021/11/02 10:58:33;;;;;;;;;;;;;;;10.88;53.90;100282.69;3498871;28;20291;-75
2021/11/02 11:00:14;;;;;;;;;;;;;;;10.88;53.99;100282.69;3499089;28;19968;-74
2021/11/02 11:01:55;;;;;;;;;;;;;;;10.87;53.92;100279.19;3502012;28;20386;-73
2021/11/02 11:03:37;;;;;;;;;;;;;;;10.85;53.94;100283.03;3502049;28;20603;-75
2021/11/02 11:05:17;;;;;;;;;;;;;;;10.80;54.00;100280.91;3500143;28;20402;-74
2021/11/02 11:06:58;;;;;;;;;;;;;;;10.76;53.89;100282.28;3500975;28;19932;-74
2021/11/02 11:08:42;;;;;;;;;;;;;;;10.75;53.99;100285.13;3501504;28;19920;-75
2021/11/02 11:10:24;;;;;;;;;;;;;;;10.73;53.95;100276.50;3501600;28;19991;-75
2021/11/02 11:12:05;;;;;;;;;;;;;;;10.70;54.05;100272.34;3497634;28;19927;-74
2021/11/02 11:13:47;;;;;;;;;;;;;;;10.67;53.88;100284.19;3499048;28;19920;-74
2021/11/02 11:15:34;;;;;;;;;;;;;;;10.65;54.11;100283.53;3500429;28;19921;-73
2021/11/02 11:17:35;;;;;;;;;;;;;;;10.63;54.03;100277.56;3487704;28;20019;-73
2021/11/02 11:19:42;;;;;;;;;;;;;;;10.60;53.88;100282.44;3505633;28;19920;-74
2021/11/02 11:21:27;;;;;;;;;;;;;;;10.59;53.82;100276.28;3496666;28;19920;-73
2021/11/02 11:23:08;;;;;;;;;;;;;;;10.58;53.89;100287.09;3503836;28;20006;-73
2021/11/02 11:25:03;;;;;;;;;;;;;;;10.56;53.75;100273.97;3504902;28;19920;-72
2021/11/02 11:26:48;;;;;;;;;;;;;;;10.54;53.97;100273.31;3505054;28;19952;-73
2021/11/02 11:28:32;;;;;;;;;;;;;;;10.51;53.96;100272.84;3500545;28;20306;-72
2021/11/02 11:30:15;;;;;;;;;;;;;;;10.48;53.83;100274.88;3502588;28;19955;-72
2021/11/02 11:31:58;;;;;;;;;;;;;;;10.46;53.88;100270.72;3500704;28;20360;-72
2021/11/02 11:33:38;;;;;;;;;;;;;;;10.44;53.94;100280.75;3504944;28;19920;-73
2021/11/02 11:35:19;;;;;;;;;;;;;;;10.42;53.97;100280.09;3503650;28;19920;-72
2021/11/02 11:37:00;;;;;;;;;;;;;;;10.39;54.16;100275.94;3506334;28;19998;-74
2021/11/02 11:38:43;;;;;;;;;;;;;;;10.37;54.21;100280.63;3502923;28;19955;-73
2021/11/02 11:40:24;;;;;;;;;;;;;;;10.34;54.09;100282.81;3506646;28;19928;-71
2021/11/02 11:42:05;;;;;;;;;;;;;;;10.32;54.26;100275.00;3503901;28;19931;-72
2021/11/02 11:43:45;;;;;;;;;;;;;;;10.28;54.24;100263.06;3505469;28;20375;-72
2021/11/02 11:45:26;;;;;;;;;;;;;;;10.26;54.17;100278.34;3501468;28;19927;-71
2021/11/02 11:47:09;;;;;;;;;;;;;;;10.24;54.15;100278.50;3505782;28;19920;-73
2021/11/02 11:48:54;;;;;;;;;;;;;;;10.22;54.20;100274.38;3504419;28;19973;-70
2021/11/02 11:50:36;;;;;;;;;;;;;;;10.22;54.40;100272.56;3504764;28;20374;-71
2021/11/02 11:52:20;;;;;;;;;;;;;;;10.23;54.46;100271.53;3504271;28;21097;-71
2021/11/02 11:54:02;;;;;;;;;;;;;;;10.23;54.37;100276.88;3503078;28;20015;-71
2021/11/02 11:55:44;;;;;;;;;;;;;;;10.23;54.37;100276.88;3506019;28;19924;-72
2021/11/02 11:57:35;;;;;;;;;;;;;;;10.22;54.44;100274.38;3501994;28;19920;-73
2021/11/02 11:59:16;;;;;;;;;;;;;;;10.21;54.56;100275.38;3502890;28;19920;-72
2021/11/02 12:01:09;;;;;;;;;;;;;;;10.19;54.44;100283.53;3502190;28;20264;-73
2021/11/02 12:03:10;;;;;;;;;;;;;;;10.17;54.57;100287.38;3503704;28;19935;-72
2021/11/02 12:04:52;;;;;;;;;;;;;;;10.14;54.51;100282.41;3486816;28;19924;-74
2021/11/02 12:06:59;;;;;;;;;;;;;;;10.12;54.44;100281.75;3505084;28;20022;-73
2021/11/02 12:08:51;;;;;;;;;;;;;;;10.09;54.74;100274.13;3486098;28;19920;-74
2021/11/02 12:10:32;;;;;;;;;;;;;;;10.07;54.83;100276.13;3503834;28;19920;-73
2021/11/02 12:12:13;;;;;;;;;;;;;;;10.04;54.92;100278.16;3503740;28;19920;-73
2021/11/02 12:13:54;;;;;;;;;;;;;;;10.03;54.91;100279.16;3504030;28;20398;-72
2021/11/02 12:15:36;;;;;;;;;;;;;;;10.02;54.83;100285.50;3503885;28;19973;-74
2021/11/02 12:17:19;;;;;;;;;;;;;;;9.99;54.88;100280.53;3493503;28;19927;-71
2021/11/02 12:19:15;;;;;;;;;;;;;;;9.97;55.04;100277.22;3499013;28;19924;-72
2021/11/02 12:22:53;;;;;;;54.15;27.92;;;;;;;9.80;56.39;100276.47;3460309;27;2471110;-72
2021/11/02 12:24:41;;;;;;;60.58;30.88;;;;;;;9.77;56.41;100271.50;3510542;28;20043;-73
2021/11/02 12:26:48;;;;;;;64.07;33.33;;;;;;;9.80;56.43;100268.47;3514848;28;20047;-73
2021/11/02 12:28:38;;;;;;;58.25;30.75;;;;;;;9.76;56.55;100269.03;3516339;28;20043;-73
2021/11/02 12:30:21;;;;;;;65.45;34.55;;;;;;;9.76;56.74;100269.03;3518888;28;20046;-73
2021/11/02 12:32:05;;;;;;;62.00;33.22;;;;;;;9.75;56.84;100267.34;3504356;28;20032;-73
2021/11/02 12:33:52;;;;;;;59.42;33.13;;;;;;;9.76;56.78;100274.34;3513897;28;20043;-74
2021/11/02 12:35:45;;;;;;;63.83;32.55;;;;;;;9.80;56.91;100272.97;3512748;28;20035;-73
2021/11/02 12:37:28;;;;;;;62.20;33.25;;;;;;;9.77;56.71;100270.66;3497913;28;20515;-73
2021/11/02 12:39:12;;;;;;;63.55;33.90;;;;;;;9.77;56.94;100276.00;3500008;28;20036;-74
2021/11/02 12:40:53;;;;;;;68.28;33.75;;;;;;;9.77;56.92;100276.81;3514718;28;20503;-74
2021/11/02 12:42:38;;;;;;;56.30;30.98;;;;;;;9.77;56.75;100281.31;3515875;28;20036;-73
2021/11/02 12:44:30;;;;;;;64.72;31.88;;;;;;;9.81;56.81;100274.66;3500280;28;20060;-72
2021/11/02 12:46:12;;;;;;;61.55;32.10;;;;;;;9.81;56.96;100272.81;3500241;28;20036;-74
2021/11/02 12:47:59;;;;;;;62.65;32.85;;;;;;;9.82;56.83;100274.47;3498833;28;20029;-74
2021/11/02 12:49:45;;;;;;;63.35;34.25;;;;;;;9.82;56.92;100271.78;3512494;28;20422;-73
2021/11/02 12:51:29;;;;;;;63.80;32.53;;;;;;;9.84;57.07;100276.97;3519318;28;20514;-73
2021/11/02 12:53:11;;;;;;;56.65;31.17;;;;;;;9.83;57.06;100269.97;3502202;28;20032;-73
2021/11/02 12:55:00;;;;;;;63.63;33.72;;;;;;;9.85;56.98;100273.28;3507905;28;20042;-73
2021/11/02 12:56:42;;;;;;;59.00;31.58;;;;;;;9.81;56.77;100272.81;3515137;28;20652;-72
2021/11/02 12:58:23;;;;;;;63.58;32.55;;;;;;;9.81;57.00;100261.34;3500889;28;20040;-73
2021/11/02 13:00:09;;;;;;;59.53;33.55;;;;;;;9.78;56.92;100267.84;3497871;28;20048;-71
2021/11/02 13:01:50;;;;;;;60.92;33.47;;;;;;;9.75;56.97;100275.34;3515481;28;20036;-72
2021/11/02 13:03:34;;;;;;;63.05;33.20;;;;;;;9.74;56.91;100273.69;3512627;28;20036;-71
2021/11/02 13:05:21;;;;;;;56.25;31.77;;;;;;;9.74;57.17;100274.50;3486170;28;20098;-71
2021/11/02 13:07:11;;;;;;;67.82;32.17;;;;;;;9.75;57.58;100268.16;3513129;28;20036;-72
2021/11/02 13:08:58;;;;;;;58.72;29.95;;;;;;;9.73;57.54;100266.69;3516200;28;20093;-71
2021/11/02 13:10:39;;;;;;;58.92;30.38;;;;;;;9.72;57.70;100262.38;3500410;28;20043;-72
2021/11/02 13:12:25;;;;;;;63.30;31.75;;;;;;;9.73;57.72;100258.69;3511837;28;20035;-71
2021/11/02 13:14:11;;;;;;;56.92;31.63;;;;;;;9.70;57.47;100267.03;3503367;28;20059;-70
2021/11/02 13:15:54;;;;;;;55.97;29.98;;;;;;;9.66;57.50;100263.91;3514418;28;20046;-72
2021/11/02 13:17:42;;;;;;;58.58;28.33;;;;;;;9.61;57.48;100263.59;3514881;28;20059;-71
2021/11/02 13:19:33;;;;;;;58.67;31.08;;;;;;;9.58;57.73;100269.28;3501385;28;20528;-74
2021/11/02 13:21:28;;;;;;;58.47;30.00;;;;;;;9.54;57.64;100266.13;3485423;28;20044;-73
2021/11/02 13:23:09;;;;;;;57.65;28.77;;;;;;;9.50;57.66;100269.28;3512360;28;20048;-73
2021/11/02 13:25:08;;;;;;;54.70;31.55;;;;;;;9.49;57.90;100272.97;3497726;28;20239;-73
2021/11/02 13:26:50;;;;;;;54.90;30.20;;;;;;;9.45;57.88;100269.84;3486595;28;20123;-72
2021/11/02 13:28:31;;;;;;;61.75;30.38;;;;;;;9.42;57.99;100272.81;3509985;28;20070;-72
2021/11/02 13:30:23;;;;;;;57.63;28.02;;;;;;;9.44;58.16;100272.66;3501245;28;20119;-70
2021/11/02 13:32:06;;;;;;;56.75;29.13;;;;;;;9.41;57.93;100275.66;3515973;28;20048;-73
2021/11/02 13:34:14;;;;;;;56.75;29.40;;;;;;;9.38;57.94;100274.19;3505456;28;20577;-72
2021/11/02 13:36:07;;;;;;;60.13;28.85;;;;;;;9.37;58.14;100272.50;3491566;28;20127;-72
2021/11/02 13:37:47;;;;;;;52.33;28.27;;;;;;;9.30;58.05;100274.22;3504004;28;20043;-72
2021/11/02 13:39:29;;;;;;;54.53;30.27;;;;;;;9.29;58.14;100272.53;3506251;28;20123;-73
2021/11/02 13:41:19;;;;;;;57.38;31.45;;;;;;;9.32;58.26;100272.19;3503599;28;20116;-72
2021/11/02 13:43:01;;;;;;;52.58;28.30;;;;;;;9.28;58.15;100270.91;3492948;28;20064;-73
2021/11/02 13:44:44;;;;;;;56.70;29.65;;;;;;;9.26;58.46;100272.88;3503981;28;20067;-73
2021/11/02 13:46:28;;;;;;;59.85;29.27;;;;;;;9.25;58.50;100271.25;3503479;28;20039;-73
2021/11/02 13:48:09;;;;;;;57.60;29.33;;;;;;;9.21;58.66;100265.41;3476686;28;20520;-72
2021/11/02 13:49:49;;;;;;;52.53;29.38;;;;;;;9.21;58.65;100264.59;3490443;28;20094;-71